createdAt,value
2018-12-14T11:15:22.802Z,96053.89
2018-12-14T11:15:34.307Z,96054.421
2018-12-14T11:15:45.743Z,96058.078
2018-12-14T11:15:55.923Z,96055.945
2018-12-14T11:16:05.573Z,96051.468
2018-12-14T11:16:17.185Z,96048.968
2018-12-14T11:16:40.305Z,96054.625
2018-12-14T11:16:51.261Z,96051.296
2018-12-14T11:17:14.898Z,96057
2018-12-14T11:17:23.744Z,96056.164
2018-12-14T11:17:33.045Z,96053.773
2018-12-14T11:17:42.017Z,96052.367
2018-12-14T11:17:50.804Z,96053.359
2018-12-14T11:18:00.003Z,96056.109
2018-12-14T11:18:08.825Z,96054.203
2018-12-14T11:18:19.184Z,96057.359
2018-12-14T11:18:28.142Z,96054.14
2018-12-14T11:18:37.425Z,96054.531
2018-12-14T11:19:16.562Z,96054.187
2018-12-14T11:19:25.823Z,96054.531
2018-12-14T11:19:34.741Z,96056.046
2018-12-14T11:19:43.759Z,96055.234
2018-12-14T11:19:53.524Z,96056.125
2018-12-14T11:20:03.142Z,96052.734
2018-12-14T11:20:15.262Z,96055.71
2018-12-14T11:20:25.427Z,96047.468
2018-12-14T11:20:35.760Z,96048.82
2018-12-14T11:20:45.861Z,96048.312
2018-12-14T11:20:56.504Z,96051.546
2018-12-14T11:21:07.661Z,96051.312
2018-12-14T11:21:37.606Z,96046.726
2018-12-14T11:21:48.346Z,96048.406
2018-12-14T11:21:59.457Z,96052.218
2018-12-14T11:22:11.562Z,96049.398
2018-12-14T11:22:23.041Z,96050.14
2018-12-14T11:22:35.442Z,96051.406
2018-12-14T11:22:48.584Z,96052.976
2018-12-14T11:22:59.624Z,96049.062
2018-12-14T11:23:11.081Z,96050.382
2018-12-14T11:23:23.022Z,96048.078
2018-12-14T11:23:39.049Z,96047.57
2018-12-14T11:23:53.783Z,96049.984
2018-12-14T11:24:06.981Z,96048.39
2018-12-14T11:24:20.005Z,96051.468
2018-12-14T11:24:33.921Z,96049.718
2018-12-14T11:24:48.783Z,96050.734
2018-12-14T11:25:03.433Z,96054.312
2018-12-14T11:25:18.108Z,96049.242
2018-12-14T11:25:31.464Z,96049.078
2018-12-14T11:25:47.121Z,96051.562
2018-12-14T11:31:14.745Z,96018.531
2018-12-14T11:31:29.624Z,96016.429
2018-12-14T11:31:40.939Z,96015.609
2018-12-14T11:31:52.885Z,96016.757
2018-12-14T11:32:03.366Z,96015.765
2018-12-14T11:32:14.686Z,96012.593
2018-12-14T11:32:26.359Z,96013.679
2018-12-14T11:32:37.561Z,96014.765
2018-12-14T11:32:49.041Z,96016.5
2018-12-14T11:32:59.763Z,96010.406
2018-12-14T11:33:12.725Z,96019.914
2018-12-14T11:33:24.704Z,96014.89
2018-12-14T11:33:35.766Z,96011.562
2018-12-14T11:33:47.445Z,96011.125
2018-12-14T11:33:58.966Z,96010.117
2018-12-14T11:34:12.865Z,96013.546
2018-12-14T11:34:29.760Z,96011.382
2018-12-14T11:34:39.309Z,96010.906
2018-12-14T11:34:50.400Z,96013.062
2018-12-14T11:35:03.447Z,96012.562
2018-12-14T11:35:14.887Z,96023.484
2018-12-14T11:35:27.080Z,96012.734
2018-12-14T11:35:39.662Z,96017.656
2018-12-14T11:35:51.081Z,96022.375
2018-12-14T11:36:02.564Z,96016.218
2018-12-14T11:36:14.063Z,96016.476
2018-12-14T11:36:25.968Z,96014.312
2018-12-14T11:36:38.881Z,96011.32
2018-12-14T11:36:51.049Z,96011.148
2018-12-14T11:37:04.485Z,96013.156
2018-12-14T11:37:16.941Z,96014.75
2018-12-14T11:37:28.097Z,96015.742
2018-12-14T11:37:39.585Z,96019.234
2018-12-14T11:37:50.840Z,96016.656
2018-12-14T11:38:02.302Z,96015.742
2018-12-14T11:38:14.403Z,96010.656
2018-12-14T11:38:26.659Z,96013.82
2018-12-14T11:38:39.201Z,96011.562
2018-12-14T11:38:52.208Z,96010.218
2018-12-14T11:39:04.322Z,96008.281
2018-12-14T11:39:16.158Z,96008.617
2018-12-14T11:39:28.964Z,96010.281
2018-12-14T11:39:39.794Z,96009.117
2018-12-14T11:39:50.566Z,96010.039
2018-12-14T11:40:01.101Z,96011.281
2018-12-14T11:40:12.944Z,96007.531
2018-12-14T11:40:25.842Z,96010.773
2018-12-14T11:40:36.862Z,96008.031
2018-12-14T11:40:49.367Z,96011.765
2018-12-14T11:41:00.444Z,96011.812
2018-12-14T11:41:11.452Z,96010.984
2018-12-14T11:41:27.143Z,96009.476
2018-12-14T11:41:40.821Z,96012.125
2018-12-14T11:41:54.001Z,96010.359
2018-12-14T11:42:08.542Z,96011.953
2018-12-14T11:42:22.486Z,96009.14
2018-12-14T11:42:36.167Z,96011.781
2018-12-14T11:42:48.319Z,96011.625
2018-12-14T11:43:00.065Z,96008.031
2018-12-14T11:43:11.445Z,96013.109
2018-12-14T11:43:22.457Z,96015.695
2018-12-14T11:43:33.622Z,96012.281
2018-12-14T11:43:44.342Z,96012.687
2018-12-14T11:43:54.567Z,96016.609
2018-12-14T11:44:06.054Z,96012.96
2018-12-14T11:44:20.749Z,96016.046
2018-12-14T11:44:30.904Z,96015.015
2018-12-14T11:44:43.366Z,96014.359
2018-12-14T11:44:55.280Z,96010.687
2018-12-14T11:45:05.921Z,96014.796
2018-12-14T11:45:16.383Z,96011.937
2018-12-14T11:45:26.868Z,96012.453
2018-12-14T11:45:37.741Z,96014.64
2018-12-14T11:45:48.463Z,96009.968
2018-12-14T11:46:00.054Z,96010.132
2018-12-14T11:46:11.942Z,96010.046
2018-12-14T11:48:06.396Z,96010.039
2018-12-14T11:48:17.050Z,96014.171
2018-12-14T11:48:24.827Z,96011.828
2018-12-14T11:48:32.610Z,96016.156
2018-12-14T11:48:40.462Z,96008.828
2018-12-14T11:48:48.211Z,96011.64
2018-12-14T11:48:56.981Z,96011.554
2018-12-14T11:49:04.895Z,96011.054
2018-12-14T11:49:14.124Z,96011.64
2018-12-14T11:49:22.142Z,96012.32
2018-12-14T11:49:32.169Z,96014.82
2018-12-14T11:49:39.961Z,96014.406
2018-12-14T11:49:50.193Z,96011.14
2018-12-14T11:49:58.758Z,96010.812
2018-12-14T11:50:07.055Z,96012.64
2018-12-14T11:50:15.371Z,96012.968
2018-12-14T11:50:23.706Z,96012.39
2018-12-14T11:50:31.500Z,96013.906
2018-12-14T11:50:39.300Z,96014.484
2018-12-14T11:50:47.174Z,96015.812
2018-12-14T11:50:56.970Z,96013.312
2018-12-14T11:51:05.964Z,96015.078
2018-12-14T11:51:14.250Z,96009.5
2018-12-14T11:51:22.128Z,96013.312
2018-12-14T11:51:30.046Z,96014.468
2018-12-14T11:51:38.714Z,96011.82
2018-12-14T11:51:47.690Z,96013.296
2018-12-14T11:51:55.741Z,96015.296
2018-12-14T11:52:03.749Z,96012.992
2018-12-14T11:52:11.653Z,96014.148
2018-12-14T11:52:19.502Z,96011.648
2018-12-14T11:52:27.379Z,96015.968
2018-12-14T11:52:35.274Z,96015.992
2018-12-14T11:52:43.085Z,96013.796
2018-12-14T11:52:50.898Z,96013.367
2018-12-14T11:52:58.816Z,96018.781
2018-12-14T11:53:06.932Z,96017.437
2018-12-14T11:53:14.725Z,96014.703
2018-12-14T11:53:22.620Z,96016.312
2018-12-14T11:53:30.539Z,96015.367
2018-12-14T11:53:39.337Z,96015.453
2018-12-14T11:53:47.232Z,96014.468
2018-12-14T11:53:55.205Z,96018.703
2018-12-14T11:54:03.121Z,96020.117
2018-12-14T11:54:10.901Z,96022.515
2018-12-14T11:54:19.821Z,96020.46
2018-12-14T11:54:27.780Z,96018.359
2018-12-14T11:54:35.687Z,96018.531
2018-12-14T11:54:43.664Z,96021.437
2018-12-14T11:54:51.581Z,96019.281
2018-12-14T11:54:59.476Z,96018.515
2018-12-14T11:55:07.321Z,96018.359
2018-12-14T11:55:15.184Z,96019.531
2018-12-14T11:55:23.103Z,96020.703
2018-12-14T11:55:30.957Z,96016.781
2018-12-14T11:55:38.797Z,96013.312
2018-12-14T11:55:47.661Z,96017.125
2018-12-14T11:55:55.520Z,96017.812
2018-12-14T11:56:24.507Z,96018.21
2018-12-14T11:56:32.387Z,96021.968
2018-12-14T11:56:40.269Z,96019.625
2018-12-14T11:56:48.217Z,96019.812
2018-12-14T11:56:56.159Z,96020.789
2018-12-14T11:57:04.188Z,96020.296
2018-12-14T11:57:12.132Z,96019.625
2018-12-14T11:57:19.977Z,96022.609
2018-12-14T11:57:28.001Z,96020.195
2018-12-14T11:57:35.999Z,96021.937
2018-12-14T11:57:43.928Z,96018.195
2018-12-14T11:57:52.889Z,96023.609
2018-12-14T11:58:00.805Z,96021.195
2018-12-14T11:58:08.765Z,96018.687
2018-12-14T11:58:16.602Z,96018.453
2018-12-14T11:58:24.428Z,96017.617
2018-12-14T11:58:32.226Z,96022.453
2018-12-14T11:58:40.096Z,96023.703
2018-12-14T11:58:48.001Z,96017.359
2018-12-14T11:58:55.964Z,96019.546
2018-12-14T11:59:03.841Z,96020.468
2018-12-14T11:59:11.739Z,96020.21
2018-12-14T11:59:19.630Z,96022.64
2018-12-14T11:59:27.511Z,96023.734
2018-12-14T11:59:36.474Z,96018.078
2018-12-14T11:59:44.419Z,96018.312
2018-12-14T11:59:52.378Z,96021.906
2018-12-14T12:00:00.232Z,96020.742
2018-12-14T12:00:08.170Z,96020.078
2018-12-14T12:00:16.079Z,96020.5
2018-12-14T12:00:23.888Z,96023.328
2018-12-14T12:00:31.747Z,96022.484
2018-12-14T12:00:39.556Z,96021.421
2018-12-14T12:00:47.559Z,96020.593
2018-12-14T12:00:55.394Z,96020.734
2018-12-14T12:01:03.325Z,96023.984
2018-12-14T12:01:11.193Z,96023.054
2018-12-14T12:01:19.081Z,96023.125
2018-12-14T12:01:28.049Z,96023.242
2018-12-14T12:01:35.994Z,96023.718
2018-12-14T12:01:43.904Z,96021.554
2018-12-14T12:01:52.854Z,96023.773
2018-12-14T12:02:00.702Z,96024.531
2018-12-14T12:02:08.657Z,96021.781
2018-12-14T12:02:16.599Z,96020.437
2018-12-14T12:02:24.481Z,96022.703
2018-12-14T12:02:32.293Z,96023.867
2018-12-14T12:02:43.482Z,96020.25
2018-12-14T12:02:50.983Z,96020.203
2018-12-14T12:02:58.833Z,96021
2018-12-14T12:03:06.679Z,96020.664
2018-12-14T12:03:14.552Z,96018.671
2018-12-14T12:03:22.420Z,96018.148
2018-12-14T12:03:30.283Z,96018.218
2018-12-14T12:06:50.286Z,96019.835
2018-12-14T12:06:58.156Z,96023.281
2018-12-14T12:07:06.080Z,96023.984
2018-12-14T12:07:14.215Z,96023.703
2018-12-14T12:07:21.958Z,96023.14
2018-12-14T12:07:29.790Z,96021.609
2018-12-14T12:07:38.747Z,96018.507
2018-12-14T12:07:48.645Z,96019.843
2018-12-14T12:07:56.450Z,96019.609
2018-12-14T12:08:05.308Z,96020.296
2018-12-14T12:08:13.187Z,96017.32
2018-12-14T12:08:21.115Z,96018.156
2018-12-14T12:08:30.034Z,96019.984
2018-12-14T12:08:37.987Z,96021.312
2018-12-14T12:08:45.858Z,96020.796
2018-12-14T12:08:53.679Z,96018.125
2018-12-14T12:09:01.595Z,96018.812
2018-12-14T12:09:09.481Z,96021.039
2018-12-14T12:09:17.317Z,96023.601
2018-12-14T12:09:25.369Z,96024.437
2018-12-14T12:09:34.523Z,96023.859
2018-12-14T12:09:42.398Z,96024.515
2018-12-14T12:09:52.132Z,96021.664
2018-12-14T12:10:00.037Z,96021.421
2018-12-14T12:10:07.896Z,96019.406
2018-12-14T12:10:17.008Z,96022.328
2018-12-14T12:10:24.986Z,96017.156
2018-12-14T12:10:32.882Z,96015.39
2018-12-14T12:10:40.821Z,96020.39
2018-12-14T12:10:48.831Z,96018.89
2018-12-14T12:10:56.771Z,96019.39
2018-12-14T12:11:05.570Z,96020.375
2018-12-14T12:11:13.411Z,96017.625
2018-12-14T12:11:21.217Z,96017.718
2018-12-14T12:11:29.060Z,96015.789
2018-12-14T12:11:36.966Z,96011.687
2018-12-14T12:11:44.982Z,96010.859
2018-12-14T12:11:52.778Z,96012.023
2018-12-14T12:12:00.679Z,96011.859
2018-12-14T12:12:08.625Z,96014.125
2018-12-14T12:12:17.413Z,96014.195
2018-12-14T12:12:25.258Z,96013.031
2018-12-14T12:12:33.180Z,96011.859
2018-12-14T12:12:41.077Z,96011.875
2018-12-14T12:12:49.028Z,96008.765
2018-12-14T12:12:56.915Z,96013.875
2018-12-14T12:13:04.753Z,96016.609
2018-12-14T12:13:12.742Z,96014.359
2018-12-14T12:13:20.684Z,96011.523
2018-12-14T12:13:28.768Z,96012.359
2018-12-14T12:13:37.679Z,96009.281
2018-12-14T12:13:45.583Z,96019.539
2018-12-14T12:13:54.560Z,96019.976
2018-12-14T12:14:02.894Z,96019.054
2018-12-14T12:14:10.765Z,96015.125
2018-12-14T12:14:18.670Z,96014.625
2018-12-14T12:14:29.729Z,96015.968
2018-12-14T12:14:37.694Z,96017.89
2018-12-14T12:14:46.081Z,96017.734
2018-12-14T12:14:54.187Z,96014.14
2018-12-14T12:15:02.465Z,96019.234
2018-12-14T12:15:11.617Z,96020.421
2018-12-14T12:15:19.821Z,96018.765
2018-12-14T12:15:28.033Z,96015.937
2018-12-14T12:15:36.050Z,96018.187
2018-12-14T12:15:44.138Z,96018.445
2018-12-14T12:15:52.034Z,96021.531
2018-12-14T12:15:59.927Z,96018.382
2018-12-14T12:16:07.887Z,96022.625
2018-12-14T12:16:15.798Z,96019.96
2018-12-14T12:16:23.890Z,96016.14
2018-12-14T12:16:32.043Z,96017.304
2018-12-14T12:16:40.007Z,96014.07
2018-12-14T12:16:48.077Z,96016.406
2018-12-14T12:16:55.984Z,96014.921
2018-12-14T12:17:03.942Z,96014.984
2018-12-14T12:17:11.978Z,96013.406
2018-12-14T12:17:19.924Z,96014.25
2018-12-14T12:17:27.895Z,96015.343
2018-12-14T12:17:36.184Z,96013.101
2018-12-14T12:17:49.328Z,96012.445
2018-12-14T12:17:55.881Z,96014.671
2018-12-14T12:18:03.981Z,96015.187
2018-12-14T12:18:12.972Z,96014.203
2018-12-14T12:18:20.978Z,96014.546
2018-12-14T12:18:33.358Z,96014.125
2018-12-14T12:18:44.088Z,96014.968
2018-12-14T12:18:53.709Z,96013.898
2018-12-14T12:19:01.619Z,96013
2018-12-14T12:19:09.555Z,96014.171
2018-12-14T12:19:19.406Z,96015.265
2018-12-14T12:19:27.341Z,96010.593
2018-12-14T12:19:35.208Z,96012.257
2018-12-14T12:19:43.080Z,96011.593
2018-12-14T12:19:51.141Z,96011.617
2018-12-14T12:19:59.028Z,96011.601
2018-12-14T12:20:07.020Z,96011.765
2018-12-14T12:20:15.217Z,96012.187
2018-12-14T12:20:23.092Z,96015.031
2018-12-14T12:20:30.994Z,96009.281
2018-12-14T12:20:39.737Z,96009.109
2018-12-14T12:20:47.097Z,96011.593
2018-12-14T12:20:56.034Z,96010.273
2018-12-14T12:21:04.893Z,96011.125
2018-12-14T12:21:13.741Z,96011.304
2018-12-14T12:21:21.716Z,96012.804
2018-12-14T12:21:29.672Z,96010.968
2018-12-14T12:21:37.636Z,96010.625
2018-12-14T12:21:45.748Z,96011.289
2018-12-14T12:21:53.638Z,96011.562
2018-12-14T12:22:01.713Z,96013.062
2018-12-14T12:22:10.414Z,96011.148
2018-12-14T12:22:20.290Z,96012.312
2018-12-14T12:22:29.202Z,96009.64
2018-12-14T12:22:37.096Z,96009.25
2018-12-14T12:22:45.035Z,96012.75
2018-12-14T12:22:52.960Z,96012.843
2018-12-14T12:23:01.024Z,96010.187
2018-12-14T12:23:09.003Z,96010.867
2018-12-14T12:23:16.987Z,96012.093
2018-12-14T12:23:25.973Z,96010.015
2018-12-14T12:23:33.891Z,96007.843
2018-12-14T12:23:41.875Z,96011.781
2018-12-14T12:23:55.165Z,96007.968
2018-12-14T12:24:00.599Z,96005.281
2018-12-14T12:24:08.631Z,96005.054
2018-12-14T12:24:16.593Z,96006.109
2018-12-14T12:24:24.462Z,96007.546
2018-12-14T12:24:32.332Z,96003.367
2018-12-14T12:24:40.275Z,96006.367
2018-12-14T12:24:49.128Z,96003.39
2018-12-14T12:24:57.159Z,96003.562
2018-12-14T12:25:05.102Z,96006.242
2018-12-14T12:25:13.020Z,96004.89
2018-12-14T12:25:20.912Z,96003.734
2018-12-14T12:25:28.825Z,96005.726
2018-12-14T12:25:36.741Z,96003.828
2018-12-14T12:25:44.643Z,96002.843
2018-12-14T12:25:52.808Z,96006.585
2018-12-14T12:26:00.794Z,96005.093
2018-12-14T12:26:08.782Z,96008.265
2018-12-14T12:26:16.675Z,96003.406
2018-12-14T12:26:24.573Z,96010.859
2018-12-14T12:26:32.455Z,96006.671
2018-12-14T12:26:40.337Z,96003.757
2018-12-14T12:26:48.169Z,96003.921
2018-12-14T12:26:56.023Z,96005.921
2018-12-14T12:27:04.014Z,96007.109
2018-12-14T12:27:11.988Z,96004.359
2018-12-14T12:27:19.932Z,96003.953
2018-12-14T12:27:27.838Z,96004.453
2018-12-14T12:27:35.686Z,96009.031
2018-12-14T12:27:44.464Z,96005.687
2018-12-14T12:27:52.376Z,96004.781
2018-12-14T12:28:00.361Z,96006.187
2018-12-14T12:28:08.301Z,96004.546
2018-12-14T12:28:16.201Z,96008.218
2018-12-14T12:28:24.127Z,96001.968
2018-12-14T12:28:32.008Z,96004.289
2018-12-14T12:28:39.778Z,96002.804
2018-12-14T12:28:48.776Z,96008.562
2018-12-14T12:28:57.807Z,96003.453
2018-12-14T12:29:05.754Z,96005.289
2018-12-14T12:29:13.821Z,96004.132
2018-12-14T12:29:21.677Z,96005.789
2018-12-14T12:29:29.537Z,96005.562
2018-12-14T12:29:37.420Z,96007.375
2018-12-14T12:29:45.299Z,96005.89
2018-12-14T12:29:55.234Z,96004.109
2018-12-14T12:30:03.104Z,95998.078
2018-12-14T12:30:11.026Z,95998.734
2018-12-14T12:30:19.004Z,95998.976
2018-12-14T12:30:27.067Z,96000.39
2018-12-14T12:30:34.954Z,95999.632
2018-12-14T12:30:42.846Z,96000.234
2018-12-14T12:30:51.657Z,95999.312
2018-12-14T12:30:59.552Z,95997.156
2018-12-14T12:31:08.571Z,95997.156
2018-12-14T12:31:16.565Z,95998.953
2018-12-14T12:31:24.845Z,95996.921
2018-12-14T12:31:32.817Z,96000.593
2018-12-14T12:31:40.801Z,96004.234
2018-12-14T12:31:48.675Z,95999.054
2018-12-14T12:31:57.512Z,96002.484
2018-12-14T12:32:05.405Z,95998.437
2018-12-14T12:32:13.355Z,96000.812
2018-12-14T12:32:21.277Z,96003.859
2018-12-14T12:32:29.253Z,96004.187
2018-12-14T12:32:37.133Z,96009.523
2018-12-14T12:32:45.124Z,96007.671
2018-12-14T12:32:54.017Z,96001.515
2018-12-14T12:33:02.002Z,96010.398
2018-12-14T12:33:09.790Z,96008.156
2018-12-14T12:33:18.837Z,96006.453
2018-12-14T12:33:26.701Z,96011.281
2018-12-14T12:33:34.540Z,96009
2018-12-14T12:33:42.448Z,96009.234
2018-12-14T12:33:50.305Z,96009.226
2018-12-14T12:33:58.221Z,96009.484
2018-12-14T12:34:06.141Z,96007.937
2018-12-14T12:34:14.952Z,96007.484
2018-12-14T12:34:22.795Z,96007.687
2018-12-14T12:34:30.797Z,96008.179
2018-12-14T12:34:38.549Z,96009.171
2018-12-14T12:34:46.449Z,96010.656
2018-12-14T12:34:55.270Z,96011.203
2018-12-14T12:35:03.132Z,96015.078
2018-12-14T12:35:10.949Z,96013.867
2018-12-14T12:35:18.807Z,96014.265
2018-12-14T12:35:26.781Z,96015.75
2018-12-14T12:35:34.608Z,96013.968
2018-12-14T12:35:43.458Z,96014.375
2018-12-14T12:35:51.310Z,96014.859
2018-12-14T12:36:00.168Z,96014.445
2018-12-14T12:36:08.046Z,96016.671
2018-12-14T12:36:16.026Z,96014.796
2018-12-14T12:36:23.928Z,96014.914
2018-12-14T12:36:31.822Z,96014.171
2018-12-14T12:36:39.878Z,96015.25
2018-12-14T12:36:47.729Z,96016.656
2018-12-14T12:36:55.579Z,96014.929
2018-12-14T12:37:04.384Z,96015.39
2018-12-14T12:37:12.204Z,96015.968
2018-12-14T12:37:20.054Z,96014.187
2018-12-14T12:37:27.935Z,96017.015
2018-12-14T12:37:35.997Z,96014.687
2018-12-14T12:37:43.787Z,96020.468
2018-12-14T12:37:51.614Z,96021.179
2018-12-14T12:37:59.668Z,96016.718
2018-12-14T12:38:08.591Z,96015.64
2018-12-14T12:38:16.538Z,96017.906
2018-12-14T12:38:43.220Z,96015.578
2018-12-14T12:38:51.093Z,96017.89
2018-12-14T12:38:58.978Z,96009.82
2018-12-14T12:39:06.837Z,96010.046
2018-12-14T12:39:15.675Z,96014.218
2018-12-14T12:39:23.578Z,96014.312
2018-12-14T12:39:31.436Z,96011.234
2018-12-14T12:39:39.314Z,96008.281
2018-12-14T12:39:47.201Z,96016.234
2018-12-14T12:39:55.074Z,96011.921
2018-12-14T12:40:02.885Z,96015.984
2018-12-14T12:40:11.706Z,96014.718
2018-12-14T12:40:21.509Z,96015.242
2018-12-14T12:40:29.372Z,96011.906
2018-12-14T12:40:38.003Z,96018.867
2018-12-14T12:40:45.878Z,96018.539
2018-12-14T12:40:53.682Z,96014.203
2018-12-14T12:41:02.567Z,96014.75
2018-12-14T12:41:11.681Z,96009.921
2018-12-14T12:41:19.529Z,96016.625
2018-12-14T12:41:28.463Z,96018.171
2018-12-14T12:41:38.027Z,96018.109
2018-12-14T12:41:45.966Z,96017.492
2018-12-14T12:41:54.097Z,96015.21
2018-12-14T12:42:02.063Z,96015.171
2018-12-14T12:42:10.052Z,96023.453
2018-12-14T12:42:17.909Z,96016.281
2018-12-14T12:42:25.851Z,96007.953
2018-12-14T12:42:33.704Z,96010.148
2018-12-14T12:42:41.591Z,96009.773
2018-12-14T12:42:49.591Z,96010.585
2018-12-14T12:42:57.471Z,96009.796
2018-12-14T12:43:05.765Z,96013.39
2018-12-14T12:43:13.864Z,96010.187
2018-12-14T12:43:22.549Z,96011.304
2018-12-14T12:43:31.398Z,96013.773
2018-12-14T12:43:39.553Z,96011.867
2018-12-14T12:43:47.412Z,96012.976
2018-12-14T12:43:55.336Z,96013.125
2018-12-14T12:44:03.242Z,96012.265
2018-12-14T12:44:11.111Z,96013.375
2018-12-14T12:44:18.976Z,96012.703
2018-12-14T12:44:33.265Z,96009.687
2018-12-14T12:44:37.631Z,96012.843
2018-12-14T12:44:45.430Z,96007.843
2018-12-14T12:44:53.276Z,96005.875
2018-12-14T12:45:01.057Z,96007.695
2018-12-14T12:45:09.856Z,96009.156
2018-12-14T12:45:18.508Z,96011.421
2018-12-14T12:45:26.367Z,96012.937
2018-12-14T12:45:34.225Z,96012.703
2018-12-14T12:45:42.124Z,96005.312
2018-12-14T12:45:49.891Z,96009.07
2018-12-14T12:45:57.695Z,96009.843
2018-12-14T12:46:05.572Z,96006.296
2018-12-14T12:46:13.423Z,96007.64
2018-12-14T12:46:21.277Z,96011.484
2018-12-14T12:46:29.092Z,96007.906
2018-12-14T12:46:37.873Z,96009.687
2018-12-14T12:46:45.724Z,96009.296
2018-12-14T12:46:53.571Z,96010.062
2018-12-14T12:47:01.362Z,96008.171
2018-12-14T12:47:09.319Z,96008.5
2018-12-14T12:47:17.128Z,96005.109
2018-12-14T12:47:24.909Z,96007.453
2018-12-14T12:47:33.042Z,96008.375
2018-12-14T12:47:40.838Z,96010.64
2018-12-14T12:47:48.658Z,96008.156
2018-12-14T12:47:56.570Z,96012.304
2018-12-14T12:48:04.438Z,96010.57
2018-12-14T12:48:12.239Z,96009.343
2018-12-14T12:48:20.122Z,96011.492
2018-12-14T12:48:27.924Z,96007.195
2018-12-14T12:48:35.732Z,96011.531
2018-12-14T12:48:43.563Z,96012.125
2018-12-14T12:48:51.411Z,96008.031
2018-12-14T12:48:59.299Z,96011.453
2018-12-14T12:49:07.167Z,96010.945
2018-12-14T12:49:15.086Z,96012.953
2018-12-14T12:49:22.879Z,96008.906
2018-12-14T12:49:30.849Z,96008.304
2018-12-14T12:49:38.814Z,96010.062
2018-12-14T12:49:46.671Z,96005.734
2018-12-14T12:49:54.525Z,96010.671
2018-12-14T12:50:02.435Z,96009.953
2018-12-14T12:50:10.251Z,96007.109
2018-12-14T12:50:19.428Z,96010.359
2018-12-14T12:50:27.288Z,96011.039
2018-12-14T12:50:37.974Z,96014.617
2018-12-14T12:50:45.828Z,96009.203
2018-12-14T12:50:54.623Z,96011.867
2018-12-14T12:51:05.403Z,96009.132
2018-12-14T12:51:13.215Z,96008.031
2018-12-14T12:51:21.035Z,96011.625
2018-12-14T12:51:28.830Z,96009.281
2018-12-14T12:51:36.710Z,96010.468
2018-12-14T12:51:45.659Z,96005.21
2018-12-14T12:51:53.547Z,96009.96
2018-12-14T12:52:01.382Z,96008.054
2018-12-14T12:52:09.220Z,96013.625
2018-12-14T12:52:17.880Z,96014.453
2018-12-14T12:52:25.777Z,96012.109
2018-12-14T12:52:33.689Z,96007.796
2018-12-14T12:52:42.564Z,96008.781
2018-12-14T12:52:50.475Z,96007.796
2018-12-14T12:52:58.311Z,96004.539
2018-12-14T12:53:06.155Z,96008.796
2018-12-14T12:53:13.998Z,96009.945
2018-12-14T12:53:24.758Z,96010.375
2018-12-14T12:53:32.638Z,96006.609
2018-12-14T12:53:40.626Z,96003.515
2018-12-14T12:53:48.424Z,96005.367
2018-12-14T12:53:56.286Z,96005.437
2018-12-14T12:54:04.955Z,96007.351
2018-12-14T12:54:12.827Z,96007.89
2018-12-14T12:54:20.664Z,96004.89
2018-12-14T12:54:28.552Z,96009.531
2018-12-14T12:54:36.440Z,96009.203
2018-12-14T12:54:44.310Z,96011.765
2018-12-14T12:54:55.916Z,96014.187
2018-12-14T12:55:04.013Z,96012.929
2018-12-14T12:55:12.048Z,96008.281
2018-12-14T12:55:19.907Z,96006.109
2018-12-14T12:55:27.819Z,96005.343
2018-12-14T12:55:35.736Z,96003.703
2018-12-14T12:55:43.565Z,96004.937
2018-12-14T12:55:51.679Z,96009.015
2018-12-14T12:55:59.495Z,96001.437
2018-12-14T12:56:07.361Z,96006.593
2018-12-14T12:56:15.191Z,96000.328
2018-12-14T12:56:23.024Z,96000.343
2018-12-14T12:56:31.131Z,96002.234
2018-12-14T12:56:39.014Z,95998.32
2018-12-14T12:56:46.941Z,96005.234
2018-12-14T12:56:54.785Z,96000.984
2018-12-14T12:57:02.686Z,96005.906
2018-12-14T12:57:10.639Z,96001.976
2018-12-14T12:57:18.448Z,96002.375
2018-12-14T12:57:26.980Z,96005.218
2018-12-14T12:57:35.791Z,96004.468
2018-12-14T12:57:43.765Z,96003.21
2018-12-14T12:57:51.558Z,96006.046
2018-12-14T12:57:59.412Z,96004.359
2018-12-14T12:58:07.284Z,96005.015
2018-12-14T12:58:15.282Z,96000.203
2018-12-14T12:58:23.217Z,95997.781
2018-12-14T12:58:32.080Z,96001.343
2018-12-14T12:58:40.070Z,96002.765
2018-12-14T12:58:48.100Z,96001.687
2018-12-14T12:58:55.950Z,96002.585
2018-12-14T12:59:03.824Z,95998.164
2018-12-14T12:59:11.695Z,96002.5
2018-12-14T12:59:19.577Z,96002.406
2018-12-14T12:59:27.393Z,95998.312
2018-12-14T12:59:36.164Z,96001.328
2018-12-14T12:59:44.180Z,96002.804
2018-12-14T12:59:52.101Z,96001.968
2018-12-14T13:00:00.104Z,96003.476
2018-12-14T13:00:10.492Z,96004.476
2018-12-14T13:00:18.358Z,96007.367
2018-12-14T13:00:26.227Z,96003.015
2018-12-14T13:00:34.041Z,96004.453
2018-12-14T13:00:42.247Z,96002.953
2018-12-14T13:00:50.108Z,96002.851
2018-12-14T13:00:57.918Z,96003.718
2018-12-14T13:01:05.771Z,96000.296
2018-12-14T13:01:13.676Z,96004.773
2018-12-14T13:01:21.617Z,96002.851
2018-12-14T13:01:29.527Z,96004.453
2018-12-14T13:01:39.162Z,96003.523
2018-12-14T13:01:47.022Z,96002.101
2018-12-14T13:01:54.828Z,96003.515
2018-12-14T13:02:02.643Z,96004.437
2018-12-14T13:02:10.512Z,96001.585
2018-12-14T13:02:18.347Z,96002.906
2018-12-14T13:02:26.176Z,96003.578
2018-12-14T13:02:34.016Z,96001.414
2018-12-14T13:02:41.896Z,96010.226
2018-12-14T13:02:49.756Z,96003.07
2018-12-14T13:02:57.591Z,96000.875
2018-12-14T13:03:05.471Z,96001.546
2018-12-14T13:03:13.523Z,96000.64
2018-12-14T13:03:21.366Z,96001.218
2018-12-14T13:03:29.226Z,95999.125
2018-12-14T13:03:37.098Z,96002.601
2018-12-14T13:03:45.026Z,96000.875
2018-12-14T13:03:52.899Z,96001.031
2018-12-14T13:04:02.484Z,96005.437
2018-12-14T13:04:10.358Z,96002.429
2018-12-14T13:04:19.254Z,96002.687
2018-12-14T13:04:27.072Z,96003.687
2018-12-14T13:04:34.918Z,96008.671
2018-12-14T13:04:42.843Z,96002.984
2018-12-14T13:04:51.654Z,96003.734
2018-12-14T13:04:59.558Z,96006.656
2018-12-14T13:05:07.443Z,96005.062
2018-12-14T13:05:15.251Z,96003.968
2018-12-14T13:05:23.074Z,96003.281
2018-12-14T13:05:34.904Z,96005.64
2018-12-14T13:05:42.894Z,96000.375
2018-12-14T13:05:51.489Z,96000.609
2018-12-14T13:06:00.379Z,96000.187
2018-12-14T13:06:08.199Z,96003.101
2018-12-14T13:06:16.034Z,96006.281
2018-12-14T13:06:23.878Z,96009.351
2018-12-14T13:06:32.862Z,96001.765
2018-12-14T13:06:40.812Z,96000.679
2018-12-14T13:06:48.680Z,96004.406
2018-12-14T13:06:58.481Z,96004.906
2018-12-14T13:07:06.328Z,96003.429
2018-12-14T13:07:14.237Z,96003.25
2018-12-14T13:07:22.063Z,96002.906
2018-12-14T13:07:29.932Z,96003.234
2018-12-14T13:07:37.866Z,96003.64
2018-12-14T13:07:45.857Z,96005.742
2018-12-14T13:07:53.736Z,96003.578
2018-12-14T13:08:01.578Z,96005.304
2018-12-14T13:08:09.564Z,96003.804
2018-12-14T13:08:23.667Z,96004.125